Time;durP1;ratioP1;P1;durP2;ratioP2;P2;SDS_P1;SDS_P2;PMS_P1;PMS_P2;Temp;Humidity;BMP_temperature;BMP_pressure;BME280_temperature;BME280_humidity;BME280_pressure;Samples;Min_cycle;Max_cycle;Signal;HPM_P1;HPM_P2
2022/01/12 00:02:18;;;;;;;51.28;27.17;;;;;;;;;;4978652;28;98580;-68
2022/01/12 00:04:44;;;;;;;51.85;28.17;;;;;;;;;;4985601;28;99947;-68
2022/01/12 00:07:10;;;;;;;50.08;26.05;;;;;;;;;;4984849;28;99323;-68
2022/01/12 00:09:37;;;;;;;56.38;27.73;;;;;;;;;;4970859;28;99974;-68
2022/01/12 00:12:04;;;;;;;52.05;27.50;;;;;;;;;;4976853;28;99204;-68
2022/01/12 00:14:30;;;;;;;60.65;28.30;;;;;;;;;;4982572;28;98653;-68
2022/01/12 00:16:59;;;;;;;52.58;27.80;;;;;;;;;;4979287;28;99936;-68
2022/01/12 00:19:27;;;;;;;53.53;28.90;;;;;;;;;;4972291;28;100567;-68
2022/01/12 00:21:55;;;;;;;52.72;27.23;;;;;;;;;;4973292;28;98556;-68
2022/01/12 00:24:25;;;;;;;51.60;26.85;;;;;;;;;;4977568;28;99991;-68
2022/01/12 00:35:08;;;;;;;49.78;27.80;;;;;;;;;;4979786;28;98534;-68
2022/01/12 00:37:34;;;;;;;51.03;28.05;;;;;;;;;;4975578;28;101328;-68
2022/01/12 00:40:01;;;;;;;49.05;27.85;;;;;;;;;;4985718;28;101217;-68
2022/01/12 00:42:28;;;;;;;52.55;27.63;;;;;;;;;;4987251;28;98708;-68
2022/01/12 00:44:54;;;;;;;48.97;26.42;;;;;;;;;;4978448;28;99213;-68
2022/01/12 00:47:22;;;;;;;46.05;27.20;;;;;;;;;;4976800;28;99279;-68
2022/01/12 00:49:49;;;;;;;54.20;27.70;;;;;;;;;;4981726;28;98068;-68
2022/01/12 00:52:15;;;;;;;51.72;28.77;;;;;;;;;;4974246;28;99656;-68
2022/01/12 00:54:46;;;;;;;45.45;26.95;;;;;;;;;;4985405;28;99050;-68
2022/01/12 00:57:12;;;;;;;48.50;28.27;;;;;;;;;;4976829;28;101613;-68
2022/01/12 00:59:39;;;;;;;49.75;26.60;;;;;;;;;;4974905;28;99669;-68
2022/01/12 01:02:05;;;;;;;45.08;26.58;;;;;;;;;;4975786;28;98698;-68
2022/01/12 01:04:33;;;;;;;47.00;27.13;;;;;;;;;;4968895;28;101440;-68
2022/01/12 01:07:00;;;;;;;41.13;26.17;;;;;;;;;;4991396;28;100818;-68
2022/01/12 01:09:28;;;;;;;40.13;25.70;;;;;;;;;;4985441;28;100030;-68
2022/01/12 01:11:55;;;;;;;49.78;28.63;;;;;;;;;;4988735;28;101208;-68
2022/01/12 01:14:36;;;;;;;46.63;27.20;;;;;;;;;;4978450;28;97870;-68
2022/01/12 01:27:46;;;;;;;37.10;22.98;;;;;;;;;;4974574;28;99328;-68
2022/01/12 01:30:15;;;;;;;43.53;26.52;;;;;;;;;;4985762;28;100653;-68
2022/01/12 01:32:44;;;;;;;43.47;27.15;;;;;;;;;;4987413;28;99088;-68
2022/01/12 01:35:11;;;;;;;46.00;26.85;;;;;;;;;;4981466;28;99862;-68
2022/01/12 01:37:40;;;;;;;45.00;26.80;;;;;;;;;;4969717;28;99285;-68
2022/01/12 01:40:07;;;;;;;47.65;26.65;;;;;;;;;;4982868;28;99200;-68
2022/01/12 01:42:54;;;;;;;44.78;27.25;;;;;;;;;;4990522;28;98796;-68
2022/01/12 01:53:50;;;;;;;42.67;27.83;;;;;;;;;;5005989;28;99078;-68
2022/01/12 01:56:19;;;;;;;53.03;29.90;;;;;;;;;;4987333;28;101951;-68
2022/01/12 01:58:48;;;;;;;53.17;29.27;;;;;;;;;;4979756;28;99068;-68
2022/01/12 02:01:15;;;;;;;56.97;29.92;;;;;;;;;;4976367;28;101796;-68
2022/01/12 02:03:53;;;;;;;51.70;29.15;;;;;;;;;;4986220;28;98923;-68
2022/01/12 02:06:19;;;;;;;56.92;30.60;;;;;;;;;;4986060;28;101475;-68
2022/01/12 02:08:46;;;;;;;52.05;29.58;;;;;;;;;;4977238;28;100428;-68
2022/01/12 02:11:27;;;;;;;56.40;29.52;;;;;;;;;;4976691;28;99086;-68
2022/01/12 02:13:58;;;;;;;51.30;29.15;;;;;;;;;;4980547;28;99283;-68
2022/01/12 02:16:33;;;;;;;57.05;29.38;;;;;;;;;;4985543;28;101773;-68
2022/01/12 02:19:14;;;;;;;51.03;29.65;;;;;;;;;;4972327;28;99590;-68
2022/01/12 02:40:27;;;;;;;60.97;31.83;;;;;;;;;;4985992;28;99357;-68
2022/01/12 02:43:10;;;;;;;63.80;31.27;;;;;;;;;;5010328;28;100937;-68
2022/01/12 02:51:14;;;;;;;72.75;32.75;;;;;;;;;;4984221;28;99856;-68
2022/01/12 02:53:42;;;;;;;71.30;33.17;;;;;;;;;;4991607;28;99663;-68
2022/01/12 02:56:15;;;;;;;80.88;33.45;;;;;;;;;;4987354;28;99155;-68
2022/01/12 02:58:43;;;;;;;79.70;36.33;;;;;;;;;;4977328;28;98906;-68
2022/01/12 03:03:45;;;;;;;77.80;34.70;;;;;;;;;;4985280;28;100972;-68
2022/01/12 03:06:17;;;;;;;69.07;33.53;;;;;;;;;;4969869;28;100032;-68
2022/01/12 03:08:44;;;;;;;92.28;36.75;;;;;;;;;;4969154;28;100253;-67
2022/01/12 03:11:12;;;;;;;75.90;35.60;;;;;;;;;;4976386;28;99466;-68
2022/01/12 03:13:39;;;;;;;82.43;35.08;;;;;;;;;;4966411;28;98805;-68
2022/01/12 03:16:13;;;;;;;83.72;36.42;;;;;;;;;;4974528;28;99924;-68
2022/01/12 03:18:40;;;;;;;98.22;37.33;;;;;;;;;;4989104;28;102020;-68
2022/01/12 03:21:07;;;;;;;76.55;35.65;;;;;;;;;;4981418;28;98711;-68
2022/01/12 03:23:34;;;;;;;77.80;36.22;;;;;;;;;;4987051;28;102914;-67
2022/01/12 03:26:00;;;;;;;101.82;39.35;;;;;;;;;;4974240;28;100321;-67
2022/01/12 03:28:28;;;;;;;85.88;38.30;;;;;;;;;;4975865;28;98662;-67
2022/01/12 03:30:58;;;;;;;81.40;36.80;;;;;;;;;;4976673;28;99959;-67
2022/01/12 03:36:23;;;;;;;107.72;37.97;;;;;;;;;;4977846;28;99358;-67
2022/01/12 03:38:51;;;;;;;93.38;40.33;;;;;;;;;;4970393;28;102011;-67
2022/01/12 03:41:17;;;;;;;88.35;38.10;;;;;;;;;;4974911;28;98538;-67
2022/01/12 03:43:44;;;;;;;87.45;39.50;;;;;;;;;;4987556;28;101636;-67
2022/01/12 03:46:12;;;;;;;84.22;37.45;;;;;;;;;;4984944;28;101547;-68
2022/01/12 03:48:40;;;;;;;82.07;36.55;;;;;;;;;;4991490;28;99426;-68
2022/01/12 03:51:06;;;;;;;90.20;36.28;;;;;;;;;;5008362;27;98908;-68
2022/01/12 03:53:33;;;;;;;86.97;35.90;;;;;;;;;;4983379;28;98656;-67
2022/01/12 03:55:59;;;;;;;79.78;36.05;;;;;;;;;;4980219;28;100429;-67
2022/01/12 03:58:25;;;;;;;86.63;37.22;;;;;;;;;;5009154;28;99845;-67
2022/01/12 04:00:52;;;;;;;89.72;37.08;;;;;;;;;;4970958;28;98758;-67
2022/01/12 04:03:18;;;;;;;93.47;38.10;;;;;;;;;;4978711;28;99010;-67
2022/01/12 04:08:30;;;;;;;83.30;36.67;;;;;;;;;;4974123;28;100432;-67
2022/01/12 04:10:58;;;;;;;104.40;40.10;;;;;;;;;;4991229;28;99905;-67
2022/01/12 04:13:27;;;;;;;83.38;37.70;;;;;;;;;;4985272;28;98001;-67
2022/01/12 04:15:58;;;;;;;103.07;39.75;;;;;;;;;;4984528;28;98584;-67
2022/01/12 04:18:24;;;;;;;77.90;35.67;;;;;;;;;;4987587;28;101823;-67
2022/01/12 04:20:51;;;;;;;99.35;38.88;;;;;;;;;;4981333;28;99407;-67
2022/01/12 04:23:19;;;;;;;87.55;36.97;;;;;;;;;;4986358;28;102404;-67
2022/01/12 04:25:53;;;;;;;84.20;37.65;;;;;;;;;;4974256;28;99241;-67
2022/01/12 04:28:20;;;;;;;86.35;37.30;;;;;;;;;;4984134;28;99322;-69
2022/01/12 04:30:47;;;;;;;124.57;42.00;;;;;;;;;;5012203;27;101545;-67
2022/01/12 04:33:14;;;;;;;83.85;36.05;;;;;;;;;;4994240;28;101245;-67
2022/01/12 04:35:47;;;;;;;112.35;39.80;;;;;;;;;;5006680;27;101548;-67
2022/01/12 04:38:14;;;;;;;114.68;41.30;;;;;;;;;;4986388;28;101109;-67
2022/01/12 04:40:41;;;;;;;121.07;40.35;;;;;;;;;;4974325;28;98723;-67
2022/01/12 04:43:09;;;;;;;133.50;42.95;;;;;;;;;;4987371;28;99344;-68
2022/01/12 04:45:56;;;;;;;101.78;39.22;;;;;;;;;;4969175;28;100558;-67
2022/01/12 04:50:52;;;;;;;133.82;41.97;;;;;;;;;;4970850;28;99118;-67
2022/01/12 04:53:19;;;;;;;128.82;41.95;;;;;;;;;;4982123;28;101068;-67
2022/01/12 04:55:46;;;;;;;100.50;41.47;;;;;;;;;;4989289;28;98618;-67
2022/01/12 04:58:14;;;;;;;140.20;44.65;;;;;;;;;;4993884;28;101790;-67
2022/01/12 05:00:42;;;;;;;117.90;42.80;;;;;;;;;;4980035;28;98946;-67
2022/01/12 05:14:01;;;;;;;255.00;48.97;;;;;;;;;;4988676;28;101484;-67
2022/01/12 05:16:27;;;;;;;303.33;53.17;;;;;;;;;;4978606;28;98679;-67
2022/01/12 05:18:55;;;;;;;239.85;50.17;;;;;;;;;;4975848;28;100857;-67
2022/01/12 05:21:23;;;;;;;162.68;45.13;;;;;;;;;;5010099;28;99112;-67
2022/01/12 05:23:50;;;;;;;130.27;42.70;;;;;;;;;;4993513;28;101673;-67
2022/01/12 05:26:17;;;;;;;212.43;46.20;;;;;;;;;;5003595;27;101733;-67
2022/01/12 05:28:43;;;;;;;207.70;46.83;;;;;;;;;;4978104;28;99207;-67
2022/01/12 05:31:11;;;;;;;244.88;49.72;;;;;;;;;;4982376;28;98974;-67
2022/01/12 05:33:41;;;;;;;165.30;46.90;;;;;;;;;;4990934;28;101630;-67
2022/01/12 05:36:07;;;;;;;266.20;51.47;;;;;;;;;;5009648;28;99475;-69
2022/01/12 05:38:34;;;;;;;177.75;45.67;;;;;;;;;;4990101;28;98794;-67
2022/01/12 05:41:03;;;;;;;151.85;44.13;;;;;;;;;;5010853;27;99891;-67
2022/01/12 05:43:31;;;;;;;133.68;45.13;;;;;;;;;;4985082;28;99208;-67
2022/01/12 05:46:07;;;;;;;180.05;46.58;;;;;;;;;;4975474;28;101267;-67
2022/01/12 05:51:20;;;;;;;168.52;45.08;;;;;;;;;;4991704;28;101315;-67
2022/01/12 05:53:46;;;;;;;120.85;42.28;;;;;;;;;;5010335;27;99829;-67
2022/01/12 05:56:12;;;;;;;206.75;50.47;;;;;;;;;;4984954;28;98675;-67
2022/01/12 05:58:39;;;;;;;171.63;48.15;;;;;;;;;;5009541;28;100413;-66
2022/01/12 06:01:05;;;;;;;169.75;47.97;;;;;;;;;;4999617;27;102474;-67
2022/01/12 06:03:32;;;;;;;147.13;46.42;;;;;;;;;;4970776;28;98590;-67
2022/01/12 06:06:00;;;;;;;189.05;48.33;;;;;;;;;;4978766;28;101346;-69
2022/01/12 06:08:33;;;;;;;177.00;49.90;;;;;;;;;;4978291;28;100336;-67
2022/01/12 06:10:59;;;;;;;176.10;49.15;;;;;;;;;;4982166;28;101580;-67
2022/01/12 06:13:25;;;;;;;136.23;44.85;;;;;;;;;;5007699;27;100259;-67
2022/01/12 06:15:52;;;;;;;121.07;41.33;;;;;;;;;;4969784;28;100739;-67
2022/01/12 06:18:19;;;;;;;112.05;42.70;;;;;;;;;;4969128;28;98959;-67
2022/01/12 06:20:45;;;;;;;156.95;44.97;;;;;;;;;;4977189;28;99292;-67
2022/01/12 06:23:11;;;;;;;134.63;44.05;;;;;;;;;;4978855;28;99592;-67
2022/01/12 06:25:43;;;;;;;131.55;44.08;;;;;;;;;;4989074;28;100588;-67
2022/01/12 06:31:10;;;;;;;128.07;43.55;;;;;;;;;;4975942;28;100212;-67
2022/01/12 06:33:41;;;;;;;124.18;43.08;;;;;;;;;;4969528;28;98548;-67
2022/01/12 06:36:09;;;;;;;142.13;44.30;;;;;;;;;;4982552;28;98687;-67
2022/01/12 06:38:35;;;;;;;121.28;43.05;;;;;;;;;;4974070;28;100363;-67
2022/01/12 06:41:03;;;;;;;117.10;41.60;;;;;;;;;;4991103;28;100173;-67
2022/01/12 06:43:30;;;;;;;147.23;43.50;;;;;;;;;;4973891;28;97854;-67
2022/01/12 06:45:56;;;;;;;105.28;39.72;;;;;;;;;;4973030;28;100902;-67
2022/01/12 06:48:23;;;;;;;110.95;41.20;;;;;;;;;;4983887;28;98965;-67
2022/01/12 06:50:49;;;;;;;101.30;39.40;;;;;;;;;;4976190;28;101100;-67
2022/01/12 06:53:16;;;;;;;116.75;42.10;;;;;;;;;;4977237;28;101028;-67
2022/01/12 06:55:43;;;;;;;141.40;41.75;;;;;;;;;;4982757;28;98646;-67
2022/01/12 06:58:09;;;;;;;124.97;42.17;;;;;;;;;;5009913;27;101190;-67
2022/01/12 07:00:35;;;;;;;112.28;38.83;;;;;;;;;;4971571;28;100399;-68
2022/01/12 07:03:04;;;;;;;122.65;41.88;;;;;;;;;;5005185;27;99885;-68
2022/01/12 07:05:38;;;;;;;102.20;39.08;;;;;;;;;;4994896;28;101201;-68
2022/01/12 07:08:04;;;;;;;92.38;36.35;;;;;;;;;;4972462;28;99500;-68
2022/01/12 07:10:36;;;;;;;103.30;37.20;;;;;;;;;;4988987;28;100272;-68
2022/01/12 07:13:13;;;;;;;93.88;36.92;;;;;;;;;;4970378;28;101611;-68
2022/01/12 07:15:41;;;;;;;73.32;33.22;;;;;;;;;;4992699;28;99340;-67
2022/01/12 07:18:09;;;;;;;79.22;31.25;;;;;;;;;;5014973;28;99657;-67
2022/01/12 07:20:35;;;;;;;75.10;31.92;;;;;;;;;;4975266;28;101122;-68
2022/01/12 07:23:02;;;;;;;78.65;33.22;;;;;;;;;;4981542;28;99011;-68
2022/01/12 07:25:28;;;;;;;86.20;34.45;;;;;;;;;;4973691;28;99435;-68
2022/01/12 07:27:55;;;;;;;72.63;31.48;;;;;;;;;;4977511;28;99532;-68
2022/01/12 07:30:22;;;;;;;91.80;33.17;;;;;;;;;;4977752;28;98576;-69
2022/01/12 07:32:49;;;;;;;82.07;33.13;;;;;;;;;;4984062;28;98926;-68
2022/01/12 07:35:15;;;;;;;104.85;34.88;;;;;;;;;;4984588;28;98720;-67
2022/01/12 07:37:42;;;;;;;93.85;33.88;;;;;;;;;;4991838;28;99359;-68
2022/01/12 07:40:08;;;;;;;95.60;32.28;;;;;;;;;;4984863;28;100318;-68
2022/01/12 07:42:35;;;;;;;84.65;30.85;;;;;;;;;;4980987;28;98601;-68
2022/01/12 07:45:11;;;;;;;95.80;31.23;;;;;;;;;;4977874;28;99013;-68
2022/01/12 07:47:37;;;;;;;88.88;32.03;;;;;;;;;;4970232;28;100281;-68
2022/01/12 07:50:05;;;;;;;82.70;29.95;;;;;;;;;;4970958;28;100374;-68
2022/01/12 07:52:33;;;;;;;88.78;30.75;;;;;;;;;;4974391;28;98709;-68
2022/01/12 07:54:59;;;;;;;103.00;28.77;;;;;;;;;;4979506;28;98667;-68
2022/01/12 07:57:26;;;;;;;92.25;24.52;;;;;;;;;;4977910;28;99119;-68
2022/01/12 07:59:52;;;;;;;105.75;29.20;;;;;;;;;;4970285;28;100858;-68
2022/01/12 08:02:18;;;;;;;170.65;31.98;;;;;;;;;;4980105;28;100779;-68
2022/01/12 08:04:45;;;;;;;181.82;36.20;;;;;;;;;;4984336;28;100144;-68
2022/01/12 08:07:11;;;;;;;136.05;29.33;;;;;;;;;;4976979;28;99846;-68
2022/01/12 08:09:38;;;;;;;112.82;25.90;;;;;;;;;;4969669;28;98532;-68
2022/01/12 08:12:05;;;;;;;78.88;19.88;;;;;;;;;;4979027;28;99042;-68
2022/01/12 08:14:32;;;;;;;94.80;23.60;;;;;;;;;;4977854;28;98627;-68
2022/01/12 08:16:59;;;;;;;80.63;17.10;;;;;;;;;;4970086;28;99681;-68
2022/01/12 08:19:27;;;;;;;92.07;19.00;;;;;;;;;;4970247;28;100478;-68
2022/01/12 08:21:54;;;;;;;84.53;20.13;;;;;;;;;;4970810;28;98119;-68
2022/01/12 08:24:21;;;;;;;142.90;23.15;;;;;;;;;;4978978;28;99364;-68
2022/01/12 08:27:04;;;;;;;79.65;20.20;;;;;;;;;;4969984;28;99427;-68
2022/01/12 08:29:30;;;;;;;123.38;21.80;;;;;;;;;;4970327;28;99700;-68
2022/01/12 08:31:56;;;;;;;73.03;23.15;;;;;;;;;;4970169;28;101200;-68
2022/01/12 08:34:23;;;;;;;82.22;19.50;;;;;;;;;;4980647;28;99549;-68
2022/01/12 08:36:50;;;;;;;88.38;17.25;;;;;;;;;;4974621;28;100226;-68
2022/01/12 08:39:16;;;;;;;72.35;18.80;;;;;;;;;;4977002;28;100034;-68
2022/01/12 08:41:42;;;;;;;51.97;15.88;;;;;;;;;;4973612;28;98583;-68
2022/01/12 08:44:29;;;;;;;61.33;16.88;;;;;;;;;;4978627;28;99140;-68
2022/01/12 08:46:55;;;;;;;54.72;16.17;;;;;;;;;;4970235;28;99498;-68
2022/01/12 08:49:21;;;;;;;48.40;16.88;;;;;;;;;;4969701;28;100841;-68
2022/01/12 08:51:48;;;;;;;48.40;16.40;;;;;;;;;;4979705;28;100527;-68
2022/01/12 08:54:14;;;;;;;70.50;19.15;;;;;;;;;;4972342;28;99345;-69
2022/01/12 08:56:41;;;;;;;57.03;18.17;;;;;;;;;;4980798;28;98675;-68
2022/01/12 08:59:07;;;;;;;48.30;15.55;;;;;;;;;;4969335;28;99849;-68
2022/01/12 09:01:33;;;;;;;55.97;17.63;;;;;;;;;;4977967;28;98998;-68
2022/01/12 09:04:00;;;;;;;50.80;16.63;;;;;;;;;;4970417;28;100099;-68
2022/01/12 09:06:26;;;;;;;39.83;12.90;;;;;;;;;;4968807;28;100101;-68
2022/01/12 09:08:53;;;;;;;48.83;15.35;;;;;;;;;;4973305;28;98608;-68
2022/01/12 09:11:19;;;;;;;53.22;15.90;;;;;;;;;;4981730;28;99948;-67
2022/01/12 09:13:45;;;;;;;45.55;16.05;;;;;;;;;;4977246;28;100593;-68
2022/01/12 09:16:12;;;;;;;57.22;16.77;;;;;;;;;;4979750;28;100246;-67
2022/01/12 09:18:40;;;;;;;53.15;16.83;;;;;;;;;;5007903;28;99944;-67
2022/01/12 09:21:07;;;;;;;51.15;16.23;;;;;;;;;;4968893;28;99686;-67
2022/01/12 09:23:34;;;;;;;55.17;16.63;;;;;;;;;;4976581;28;99436;-68
2022/01/12 09:26:00;;;;;;;53.90;16.75;;;;;;;;;;4975242;28;100378;-67
2022/01/12 09:28:26;;;;;;;57.58;17.27;;;;;;;;;;4976388;28;98978;-67
2022/01/12 09:30:53;;;;;;;52.50;17.90;;;;;;;;;;4981586;28;100347;-68
2022/01/12 09:33:20;;;;;;;57.70;17.75;;;;;;;;;;4978192;28;100844;-67
2022/01/12 09:35:49;;;;;;;54.08;16.60;;;;;;;;;;4981803;28;98895;-67
2022/01/12 09:38:19;;;;;;;55.33;17.58;;;;;;;;;;4975873;28;101888;-67
2022/01/12 09:40:45;;;;;;;57.70;19.05;;;;;;;;;;4982653;28;100281;-67
2022/01/12 09:43:12;;;;;;;52.78;17.88;;;;;;;;;;4979107;28;100150;-67
2022/01/12 09:45:43;;;;;;;48.85;15.88;;;;;;;;;;4978718;28;99890;-66
2022/01/12 09:48:10;;;;;;;51.00;15.82;;;;;;;;;;4972305;28;99029;-68
2022/01/12 09:50:37;;;;;;;61.38;17.85;;;;;;;;;;4977237;28;100929;-68
2022/01/12 09:53:04;;;;;;;53.65;17.08;;;;;;;;;;4976679;28;99794;-66
2022/01/12 09:55:30;;;;;;;46.40;15.85;;;;;;;;;;4978763;28;101656;-68
2022/01/12 09:57:56;;;;;;;46.80;17.52;;;;;;;;;;4980047;28;102064;-68
2022/01/12 10:00:24;;;;;;;47.88;16.50;;;;;;;;;;4981877;28;99473;-67
2022/01/12 10:02:51;;;;;;;40.95;16.20;;;;;;;;;;4982942;28;103337;-67
2022/01/12 10:05:17;;;;;;;45.25;15.20;;;;;;;;;;4975190;28;102494;-67
2022/01/12 10:07:44;;;;;;;45.30;14.35;;;;;;;;;;4977782;28;100064;-68
2022/01/12 10:10:14;;;;;;;42.83;15.77;;;;;;;;;;4979905;28;99692;-68
2022/01/12 10:12:54;;;;;;;39.17;14.25;;;;;;;;;;4979642;28;100319;-68
2022/01/12 10:15:20;;;;;;;46.30;15.15;;;;;;;;;;4976926;28;100145;-67
2022/01/12 10:17:47;;;;;;;42.60;16.48;;;;;;;;;;4976463;28;100477;-68
2022/01/12 10:20:19;;;;;;;46.17;15.57;;;;;;;;;;4979582;28;100518;-67
2022/01/12 10:22:58;;;;;;;51.40;15.53;;;;;;;;;;4982243;28;100205;-67
2022/01/12 10:25:26;;;;;;;39.55;14.70;;;;;;;;;;4978126;28;99868;-68
2022/01/12 10:27:52;;;;;;;49.00;15.15;;;;;;;;;;4992406;28;98705;-67
2022/01/12 10:30:29;;;;;;;41.30;14.43;;;;;;;;;;4976387;28;100098;-67
2022/01/12 10:33:00;;;;;;;41.60;13.95;;;;;;;;;;4976789;28;103550;-67
2022/01/12 10:35:27;;;;;;;36.22;13.02;;;;;;;;;;4975626;28;99121;-67
2022/01/12 10:38:04;;;;;;;34.88;12.70;;;;;;;;;;4976386;28;100292;-67
2022/01/12 10:40:30;;;;;;;37.75;12.07;;;;;;;;;;4974438;28;101059;-67
2022/01/12 10:42:56;;;;;;;39.78;12.52;;;;;;;;;;4979999;28;100506;-67
2022/01/12 10:45:23;;;;;;;29.25;12.18;;;;;;;;;;4979704;28;100540;-67
2022/01/12 10:47:58;;;;;;;31.17;13.05;;;;;;;;;;4976683;28;99138;-67
2022/01/12 10:50:26;;;;;;;35.60;11.88;;;;;;;;;;4984023;28;100081;-68
2022/01/12 10:52:53;;;;;;;31.25;12.65;;;;;;;;;;4973770;28;102528;-68
2022/01/12 10:55:19;;;;;;;33.47;11.55;;;;;;;;;;4980334;28;99181;-68
2022/01/12 10:57:46;;;;;;;33.38;12.25;;;;;;;;;;4973505;28;100093;-68
2022/01/12 11:00:18;;;;;;;28.08;11.75;;;;;;;;;;4984727;28;99922;-68
2022/01/12 11:02:45;;;;;;;41.65;14.48;;;;;;;;;;4979901;28;100630;-68
2022/01/12 11:05:13;;;;;;;34.90;13.65;;;;;;;;;;4979981;28;99761;-68
2022/01/12 11:07:39;;;;;;;41.47;14.30;;;;;;;;;;4976551;28;99671;-68
2022/01/12 11:10:06;;;;;;;33.75;13.25;;;;;;;;;;4985655;28;99199;-68
2022/01/12 11:12:35;;;;;;;39.30;14.00;;;;;;;;;;4979416;28;100319;-68
2022/01/12 11:15:04;;;;;;;34.83;13.52;;;;;;;;;;4979062;28;97843;-68
2022/01/12 11:17:30;;;;;;;36.13;14.57;;;;;;;;;;4979372;28;100362;-68
2022/01/12 11:20:16;;;;;;;31.05;12.55;;;;;;;;;;4983314;28;100675;-69
2022/01/12 11:22:57;;;;;;;33.22;12.93;;;;;;;;;;4979642;28;101171;-69
2022/01/12 11:25:28;;;;;;;31.40;12.10;;;;;;;;;;4979549;28;100727;-68
2022/01/12 11:28:13;;;;;;;32.75;12.85;;;;;;;;;;4973838;28;100347;-68
2022/01/12 11:30:46;;;;;;;25.70;12.23;;;;;;;;;;4983281;28;99655;-68
2022/01/12 11:33:13;;;;;;;26.50;13.02;;;;;;;;;;4978794;28;99422;-68
2022/01/12 11:35:49;;;;;;;30.63;11.98;;;;;;;;;;4977088;28;100544;-68
2022/01/12 11:38:23;;;;;;;31.58;12.50;;;;;;;;;;4978710;28;100212;-69
2022/01/12 11:40:52;;;;;;;33.35;12.68;;;;;;;;;;4979278;28;99868;-69
2022/01/12 11:43:25;;;;;;;29.75;10.10;;;;;;;;;;4973240;28;98689;-69
2022/01/12 11:46:01;;;;;;;29.25;11.55;;;;;;;;;;4974377;28;100138;-68
2022/01/12 11:48:42;;;;;;;32.30;11.88;;;;;;;;;;4969114;28;100587;-68
2022/01/12 11:51:09;;;;;;;40.08;13.02;;;;;;;;;;4976812;28;98667;-69
2022/01/12 11:53:45;;;;;;;22.25;11.55;;;;;;;;;;4977778;28;99350;-68
2022/01/12 11:56:13;;;;;;;30.33;12.23;;;;;;;;;;4968718;28;98588;-68
2022/01/12 11:58:49;;;;;;;30.30;11.88;;;;;;;;;;4977025;28;100120;-69
2022/01/12 12:01:16;;;;;;;28.60;12.25;;;;;;;;;;4970162;28;100698;-68
2022/01/12 12:03:54;;;;;;;35.10;13.63;;;;;;;;;;4976936;28;98585;-68
2022/01/12 12:06:20;;;;;;;32.05;13.27;;;;;;;;;;4978760;28;101010;-68
2022/01/12 12:09:18;;;;;;;37.63;13.07;;;;;;;;;;4977749;28;99510;-69
2022/01/12 12:11:51;;;;;;;36.15;14.23;;;;;;;;;;4966367;28;100888;-68
2022/01/12 12:14:18;;;;;;;31.67;13.55;;;;;;;;;;4970398;28;101008;-68
2022/01/12 12:16:45;;;;;;;33.08;14.40;;;;;;;;;;4973252;28;100457;-68
2022/01/12 12:19:12;;;;;;;36.42;13.13;;;;;;;;;;4978641;28;100017;-68
2022/01/12 12:21:45;;;;;;;26.98;12.57;;;;;;;;;;4975040;28;100570;-68
2022/01/12 12:24:12;;;;;;;32.25;13.25;;;;;;;;;;4972928;28;98600;-69
2022/01/12 12:26:44;;;;;;;33.95;12.40;;;;;;;;;;4976426;28;101830;-68
2022/01/12 12:29:10;;;;;;;30.27;11.98;;;;;;;;;;4971493;28;100282;-68
2022/01/12 12:31:38;;;;;;;34.08;12.40;;;;;;;;;;4978839;28;98691;-68
2022/01/12 12:34:21;;;;;;;38.53;12.18;;;;;;;;;;4983621;28;100075;-68
2022/01/12 12:36:54;;;;;;;25.65;12.55;;;;;;;;;;4976064;28;100727;-68
2022/01/12 12:39:21;;;;;;;32.58;14.68;;;;;;;;;;4978615;28;100885;-68
2022/01/12 12:41:47;;;;;;;42.75;15.23;;;;;;;;;;4980735;28;99548;-68
2022/01/12 12:44:19;;;;;;;38.63;12.68;;;;;;;;;;4972708;28;98696;-68
2022/01/12 12:46:46;;;;;;;37.00;13.80;;;;;;;;;;4979270;28;99322;-68
2022/01/12 12:49:13;;;;;;;40.60;15.32;;;;;;;;;;4987273;28;100422;-68
2022/01/12 12:51:40;;;;;;;34.85;14.05;;;;;;;;;;4969679;28;99026;-68
2022/01/12 12:54:06;;;;;;;38.42;14.13;;;;;;;;;;4976671;28;100197;-68
2022/01/12 12:56:58;;;;;;;26.17;12.82;;;;;;;;;;4974012;28;100053;-68
2022/01/12 12:59:25;;;;;;;26.75;11.30;;;;;;;;;;4981521;28;99033;-68
2022/01/12 13:01:51;;;;;;;32.03;12.40;;;;;;;;;;4976989;28;100380;-68
2022/01/12 13:04:20;;;;;;;30.40;13.38;;;;;;;;;;4975955;28;99363;-68
2022/01/12 13:06:47;;;;;;;27.02;11.20;;;;;;;;;;4972251;28;100029;-68
2022/01/12 13:09:16;;;;;;;27.80;11.43;;;;;;;;;;4979971;28;100149;-68
2022/01/12 13:11:49;;;;;;;28.77;11.40;;;;;;;;;;4990217;28;100095;-69
2022/01/12 13:14:16;;;;;;;28.10;11.07;;;;;;;;;;4976704;28;100163;-68
2022/01/12 13:16:52;;;;;;;31.50;12.05;;;;;;;;;;4989917;28;100344;-68
2022/01/12 13:21:07;;;;;;;21.33;10.95;;;;;;;;;;4981212;28;99509;-68
2022/01/12 13:22:26;;;;;;;33.55;12.63;;;;;;;;;;4982092;28;99275;-70
2022/01/12 13:24:52;;;;;;;26.75;11.73;;;;;;;;;;4981105;28;98577;-68
2022/01/12 13:27:20;;;;;;;32.42;12.18;;;;;;;;;;4968719;28;99177;-68
2022/01/12 13:29:50;;;;;;;32.40;12.85;;;;;;;;;;4982082;28;101307;-68
2022/01/12 13:32:16;;;;;;;32.78;12.18;;;;;;;;;;4971911;28;98604;-67
2022/01/12 13:34:53;;;;;;;30.38;12.90;;;;;;;;;;4973885;28;99205;-68
2022/01/12 13:37:19;;;;;;;37.13;14.38;;;;;;;;;;4975686;28;99417;-67
2022/01/12 13:39:47;;;;;;;30.88;13.20;;;;;;;;;;4983465;28;99149;-68
2022/01/12 13:42:14;;;;;;;33.05;14.25;;;;;;;;;;4985450;28;100450;-68
2022/01/12 13:44:40;;;;;;;32.88;12.88;;;;;;;;;;4983311;28;100329;-67
2022/01/12 13:47:26;;;;;;;39.35;14.98;;;;;;;;;;4975297;28;100021;-68
2022/01/12 13:50:05;;;;;;;32.58;12.30;;;;;;;;;;4977242;28;100510;-68
2022/01/12 13:52:32;;;;;;;33.72;13.88;;;;;;;;;;4978723;28;98962;-67
2022/01/12 13:55:07;;;;;;;31.13;12.30;;;;;;;;;;4971132;28;101016;-68
2022/01/12 13:57:33;;;;;;;31.40;13.48;;;;;;;;;;4977298;28;100125;-68
2022/01/12 14:00:00;;;;;;;31.13;13.57;;;;;;;;;;4976195;28;98635;-68
2022/01/12 14:02:29;;;;;;;33.05;13.10;;;;;;;;;;4981808;28;99911;-68
2022/01/12 14:05:07;;;;;;;34.33;14.15;;;;;;;;;;4970526;28;100419;-67
2022/01/12 14:07:38;;;;;;;32.17;14.45;;;;;;;;;;4981837;28;98588;-67
2022/01/12 14:10:06;;;;;;;35.72;16.00;;;;;;;;;;4981006;28;100889;-68
2022/01/12 14:12:33;;;;;;;31.05;15.38;;;;;;;;;;4968575;28;97899;-67
2022/01/12 14:15:01;;;;;;;26.75;15.00;;;;;;;;;;4975681;28;102017;-68
2022/01/12 14:17:32;;;;;;;36.40;15.18;;;;;;;;;;4980784;28;100480;-68
2022/01/12 14:19:59;;;;;;;31.63;16.45;;;;;;;;;;4977153;28;100068;-67
2022/01/12 14:22:40;;;;;;;35.97;15.68;;;;;;;;;;4967893;28;101082;-67
2022/01/12 14:25:07;;;;;;;27.42;15.65;;;;;;;;;;4977085;28;100291;-68
2022/01/12 14:27:37;;;;;;;34.67;17.70;;;;;;;;;;4977552;28;100196;-68
2022/01/12 14:30:05;;;;;;;37.05;17.27;;;;;;;;;;4971179;28;99900;-68
2022/01/12 14:32:35;;;;;;;45.72;18.60;;;;;;;;;;4971834;28;99857;-68
2022/01/12 14:35:02;;;;;;;37.63;18.40;;;;;;;;;;4972590;28;100033;-69
2022/01/12 14:37:28;;;;;;;41.78;19.88;;;;;;;;;;4972638;28;99936;-68
2022/01/12 14:39:55;;;;;;;34.60;19.17;;;;;;;;;;4974771;28;102445;-68
2022/01/12 14:42:22;;;;;;;33.38;18.02;;;;;;;;;;4973582;28;99593;-68
2022/01/12 14:44:48;;;;;;;38.45;19.02;;;;;;;;;;4989921;28;101447;-68
2022/01/12 14:47:15;;;;;;;43.63;20.48;;;;;;;;;;4974499;28;100783;-69
2022/01/12 14:49:41;;;;;;;38.72;19.75;;;;;;;;;;4982813;28;100722;-69
2022/01/12 14:52:07;;;;;;;38.42;19.60;;;;;;;;;;4982301;28;99899;-67
2022/01/12 14:54:34;;;;;;;38.65;19.63;;;;;;;;;;4979325;28;100252;-68
2022/01/12 14:57:00;;;;;;;37.85;18.90;;;;;;;;;;4977415;28;100297;-68
2022/01/12 14:59:26;;;;;;;45.20;22.05;;;;;;;;;;4981190;28;100247;-68
2022/01/12 15:01:53;;;;;;;46.20;22.48;;;;;;;;;;4981878;28;100365;-69
2022/01/12 15:04:21;;;;;;;40.70;22.85;;;;;;;;;;4979620;28;100434;-69
2022/01/12 15:06:47;;;;;;;44.42;21.42;;;;;;;;;;4982813;28;99476;-69
2022/01/12 15:09:14;;;;;;;41.92;20.98;;;;;;;;;;4983600;28;100076;-69
2022/01/12 15:11:42;;;;;;;49.35;21.83;;;;;;;;;;4986989;28;100212;-68
2022/01/12 15:16:53;;;;;;;39.30;21.67;;;;;;;;;;4984102;28;99616;-69
2022/01/12 15:19:19;;;;;;;40.95;22.38;;;;;;;;;;4974580;28;98677;-69
2022/01/12 15:21:46;;;;;;;42.70;22.80;;;;;;;;;;4980912;28;99513;-69
2022/01/12 15:24:12;;;;;;;43.60;22.27;;;;;;;;;;4981420;28;100313;-69
2022/01/12 15:26:43;;;;;;;38.33;22.42;;;;;;;;;;4980457;28;97846;-69
2022/01/12 15:29:09;;;;;;;41.15;20.98;;;;;;;;;;4983463;28;99361;-69
2022/01/12 15:31:35;;;;;;;34.25;20.17;;;;;;;;;;4980209;28;100592;-69
2022/01/12 15:34:02;;;;;;;41.08;19.90;;;;;;;;;;4975868;28;99871;-69
2022/01/12 15:36:28;;;;;;;42.38;20.05;;;;;;;;;;4985904;28;99677;-68
2022/01/12 15:38:55;;;;;;;40.15;22.05;;;;;;;;;;4982219;28;99213;-69
2022/01/12 15:41:21;;;;;;;46.72;21.88;;;;;;;;;;4976581;28;100379;-69